sensor_id;sensor_type;location;lat;lon;timestamp;P1;durP1;ratioP1;P2;durP2;ratioP2
53549;SDS011;67273;52.914;-0.982;2023-07-29T00:00:24;2.05;;;1.40;;
53549;SDS011;67273;52.914;-0.982;2023-07-29T00:02:50;1.65;;;1.45;;
53549;SDS011;67273;52.914;-0.982;2023-07-29T00:05:15;2.03;;;1.50;;
53549;SDS011;67273;52.914;-0.982;2023-07-29T00:07:41;2.95;;;1.73;;
53549;SDS011;67273;52.914;-0.982;2023-07-29T00:10:07;1.42;;;1.33;;
53549;SDS011;67273;52.914;-0.982;2023-07-29T00:12:33;1.88;;;1.40;;
53549;SDS011;67273;52.914;-0.982;2023-07-29T00:14:59;2.88;;;1.50;;
53549;SDS011;67273;52.914;-0.982;2023-07-29T00:17:27;2.35;;;1.50;;
53549;SDS011;67273;52.914;-0.982;2023-07-29T00:19:52;2.15;;;1.40;;
53549;SDS011;67273;52.914;-0.982;2023-07-29T00:22:18;1.45;;;1.30;;
53549;SDS011;67273;52.914;-0.982;2023-07-29T00:24:44;2.95;;;1.55;;
53549;SDS011;67273;52.914;-0.982;2023-07-29T00:27:10;1.65;;;1.45;;
53549;SDS011;67273;52.914;-0.982;2023-07-29T00:29:35;2.17;;;1.40;;
53549;SDS011;67273;52.914;-0.982;2023-07-29T00:32:01;1.60;;;1.27;;
53549;SDS011;67273;52.914;-0.982;2023-07-29T00:34:28;1.45;;;1.35;;
53549;SDS011;67273;52.914;-0.982;2023-07-29T00:36:54;2.50;;;1.30;;
53549;SDS011;67273;52.914;-0.982;2023-07-29T00:39:20;1.92;;;1.45;;
53549;SDS011;67273;52.914;-0.982;2023-07-29T00:41:45;2.15;;;1.58;;
53549;SDS011;67273;52.914;-0.982;2023-07-29T00:44:11;1.55;;;1.30;;
53549;SDS011;67273;52.914;-0.982;2023-07-29T00:46:37;2.53;;;1.55;;
53549;SDS011;67273;52.914;-0.982;2023-07-29T00:49:05;2.28;;;1.60;;
53549;SDS011;67273;52.914;-0.982;2023-07-29T00:51:32;2.30;;;1.50;;
53549;SDS011;67273;52.914;-0.982;2023-07-29T00:53:58;2.38;;;1.58;;
53549;SDS011;67273;52.914;-0.982;2023-07-29T00:56:23;1.55;;;1.33;;
53549;SDS011;67273;52.914;-0.982;2023-07-29T00:58:49;1.45;;;1.35;;
53549;SDS011;67273;52.914;-0.982;2023-07-29T01:01:17;3.22;;;1.50;;
53549;SDS011;67273;52.914;-0.982;2023-07-29T01:03:43;2.95;;;1.73;;
53549;SDS011;67273;52.914;-0.982;2023-07-29T01:06:12;2.28;;;1.60;;
53549;SDS011;67273;52.914;-0.982;2023-07-29T01:08:50;2.85;;;1.80;;
53549;SDS011;67273;52.914;-0.982;2023-07-29T01:11:26;3.03;;;1.52;;
53549;SDS011;67273;52.914;-0.982;2023-07-29T01:14:00;1.95;;;1.35;;
53549;SDS011;67273;52.914;-0.982;2023-07-29T01:16:32;2.25;;;1.60;;
53549;SDS011;67273;52.914;-0.982;2023-07-29T01:21:32;1.85;;;1.70;;
53549;SDS011;67273;52.914;-0.982;2023-07-29T01:24:01;1.73;;;1.35;;
53549;SDS011;67273;52.914;-0.982;2023-07-29T01:26:27;2.33;;;1.60;;
53549;SDS011;67273;52.914;-0.982;2023-07-29T01:28:54;1.95;;;1.42;;
53549;SDS011;67273;52.914;-0.982;2023-07-29T01:31:22;2.75;;;1.52;;
53549;SDS011;67273;52.914;-0.982;2023-07-29T01:33:53;1.90;;;1.48;;
53549;SDS011;67273;52.914;-0.982;2023-07-29T01:36:23;2.63;;;1.67;;
53549;SDS011;67273;52.914;-0.982;2023-07-29T01:38:53;2.00;;;1.50;;
53549;SDS011;67273;52.914;-0.982;2023-07-29T01:41:23;2.65;;;1.40;;
53549;SDS011;67273;52.914;-0.982;2023-07-29T01:43:50;3.00;;;1.80;;
53549;SDS011;67273;52.914;-0.982;2023-07-29T01:46:17;1.95;;;1.60;;
53549;SDS011;67273;52.914;-0.982;2023-07-29T01:48:43;2.00;;;1.50;;
53549;SDS011;67273;52.914;-0.982;2023-07-29T01:51:11;2.17;;;1.50;;
53549;SDS011;67273;52.914;-0.982;2023-07-29T01:53:38;2.10;;;1.52;;
53549;SDS011;67273;52.914;-0.982;2023-07-29T01:56:03;1.98;;;1.60;;
53549;SDS011;67273;52.914;-0.982;2023-07-29T01:58:34;1.65;;;1.50;;
53549;SDS011;67273;52.914;-0.982;2023-07-29T02:01:01;2.50;;;1.58;;
53549;SDS011;67273;52.914;-0.982;2023-07-29T02:03:27;3.10;;;1.50;;
53549;SDS011;67273;52.914;-0.982;2023-07-29T02:05:53;2.90;;;1.60;;
53549;SDS011;67273;52.914;-0.982;2023-07-29T02:08:19;1.92;;;1.45;;
53549;SDS011;67273;52.914;-0.982;2023-07-29T02:10:44;2.72;;;1.65;;
53549;SDS011;67273;52.914;-0.982;2023-07-29T02:13:10;3.85;;;1.70;;
53549;SDS011;67273;52.914;-0.982;2023-07-29T02:15:37;3.15;;;1.70;;
53549;SDS011;67273;52.914;-0.982;2023-07-29T02:18:03;2.08;;;1.40;;
53549;SDS011;67273;52.914;-0.982;2023-07-29T02:20:31;2.58;;;1.80;;
53549;SDS011;67273;52.914;-0.982;2023-07-29T02:22:57;2.67;;;1.65;;
53549;SDS011;67273;52.914;-0.982;2023-07-29T02:25:23;2.95;;;1.70;;
53549;SDS011;67273;52.914;-0.982;2023-07-29T02:27:49;3.33;;;1.70;;
53549;SDS011;67273;52.914;-0.982;2023-07-29T02:30:15;2.83;;;1.70;;
53549;SDS011;67273;52.914;-0.982;2023-07-29T02:32:42;1.63;;;1.45;;
53549;SDS011;67273;52.914;-0.982;2023-07-29T02:35:08;2.58;;;1.80;;
53549;SDS011;67273;52.914;-0.982;2023-07-29T02:37:35;2.40;;;1.60;;
53549;SDS011;67273;52.914;-0.982;2023-07-29T02:40:01;4.32;;;1.90;;
53549;SDS011;67273;52.914;-0.982;2023-07-29T02:42:28;2.70;;;1.45;;
53549;SDS011;67273;52.914;-0.982;2023-07-29T02:44:53;2.58;;;1.65;;
53549;SDS011;67273;52.914;-0.982;2023-07-29T02:47:19;2.25;;;1.60;;
53549;SDS011;67273;52.914;-0.982;2023-07-29T02:49:46;2.53;;;1.58;;
53549;SDS011;67273;52.914;-0.982;2023-07-29T02:52:12;1.90;;;1.50;;
53549;SDS011;67273;52.914;-0.982;2023-07-29T02:54:38;3.95;;;1.50;;
53549;SDS011;67273;52.914;-0.982;2023-07-29T02:57:04;2.65;;;1.73;;
53549;SDS011;67273;52.914;-0.982;2023-07-29T02:59:30;2.97;;;1.63;;
53549;SDS011;67273;52.914;-0.982;2023-07-29T03:01:55;3.15;;;1.70;;
53549;SDS011;67273;52.914;-0.982;2023-07-29T03:04:21;3.45;;;1.60;;
53549;SDS011;67273;52.914;-0.982;2023-07-29T03:06:51;2.55;;;1.52;;
53549;SDS011;67273;52.914;-0.982;2023-07-29T03:09:17;3.67;;;1.70;;
53549;SDS011;67273;52.914;-0.982;2023-07-29T03:11:43;2.65;;;1.75;;
53549;SDS011;67273;52.914;-0.982;2023-07-29T03:14:08;3.15;;;1.80;;
53549;SDS011;67273;52.914;-0.982;2023-07-29T03:16:34;2.20;;;1.60;;
53549;SDS011;67273;52.914;-0.982;2023-07-29T03:19:00;2.55;;;1.75;;
53549;SDS011;67273;52.914;-0.982;2023-07-29T03:21:26;2.88;;;1.67;;
53549;SDS011;67273;52.914;-0.982;2023-07-29T03:23:53;2.60;;;1.58;;
53549;SDS011;67273;52.914;-0.982;2023-07-29T03:26:19;2.47;;;1.60;;
53549;SDS011;67273;52.914;-0.982;2023-07-29T03:28:46;2.60;;;1.60;;
53549;SDS011;67273;52.914;-0.982;2023-07-29T03:31:15;2.88;;;1.90;;
53549;SDS011;67273;52.914;-0.982;2023-07-29T03:33:44;2.42;;;1.70;;
53549;SDS011;67273;52.914;-0.982;2023-07-29T03:36:10;3.28;;;1.80;;
53549;SDS011;67273;52.914;-0.982;2023-07-29T03:38:36;3.35;;;1.70;;
53549;SDS011;67273;52.914;-0.982;2023-07-29T03:41:08;3.38;;;1.70;;
53549;SDS011;67273;52.914;-0.982;2023-07-29T03:43:34;2.83;;;1.80;;
53549;SDS011;67273;52.914;-0.982;2023-07-29T03:46:01;4.47;;;1.75;;
53549;SDS011;67273;52.914;-0.982;2023-07-29T03:48:27;2.75;;;1.63;;
53549;SDS011;67273;52.914;-0.982;2023-07-29T03:50:52;2.53;;;1.80;;
53549;SDS011;67273;52.914;-0.982;2023-07-29T03:53:19;2.90;;;1.60;;
53549;SDS011;67273;52.914;-0.982;2023-07-29T03:55:45;2.47;;;1.73;;
53549;SDS011;67273;52.914;-0.982;2023-07-29T03:58:13;2.85;;;1.70;;
53549;SDS011;67273;52.914;-0.982;2023-07-29T04:00:39;2.95;;;1.90;;
53549;SDS011;67273;52.914;-0.982;2023-07-29T04:03:05;3.80;;;1.73;;
53549;SDS011;67273;52.914;-0.982;2023-07-29T04:05:32;2.90;;;1.67;;
53549;SDS011;67273;52.914;-0.982;2023-07-29T04:07:59;3.65;;;1.60;;
53549;SDS011;67273;52.914;-0.982;2023-07-29T04:10:25;2.55;;;1.63;;
53549;SDS011;67273;52.914;-0.982;2023-07-29T04:12:51;4.20;;;1.80;;
53549;SDS011;67273;52.914;-0.982;2023-07-29T04:15:18;2.85;;;1.80;;
53549;SDS011;67273;52.914;-0.982;2023-07-29T04:17:43;4.50;;;1.75;;
53549;SDS011;67273;52.914;-0.982;2023-07-29T04:20:10;2.65;;;1.67;;
53549;SDS011;67273;52.914;-0.982;2023-07-29T04:22:36;3.30;;;1.70;;
53549;SDS011;67273;52.914;-0.982;2023-07-29T04:25:03;1.90;;;1.60;;
53549;SDS011;67273;52.914;-0.982;2023-07-29T04:27:32;4.63;;;1.88;;
53549;SDS011;67273;52.914;-0.982;2023-07-29T04:30:00;2.25;;;1.70;;
53549;SDS011;67273;52.914;-0.982;2023-07-29T04:32:29;2.58;;;1.50;;
53549;SDS011;67273;52.914;-0.982;2023-07-29T04:34:57;3.72;;;1.80;;
53549;SDS011;67273;52.914;-0.982;2023-07-29T04:37:23;2.25;;;1.50;;
53549;SDS011;67273;52.914;-0.982;2023-07-29T04:39:49;2.65;;;1.52;;
53549;SDS011;67273;52.914;-0.982;2023-07-29T04:42:15;3.30;;;1.70;;
53549;SDS011;67273;52.914;-0.982;2023-07-29T04:44:41;3.97;;;1.80;;
53549;SDS011;67273;52.914;-0.982;2023-07-29T04:47:07;3.88;;;1.83;;
53549;SDS011;67273;52.914;-0.982;2023-07-29T04:49:34;3.30;;;1.63;;
53549;SDS011;67273;52.914;-0.982;2023-07-29T04:52:01;2.60;;;1.48;;
53549;SDS011;67273;52.914;-0.982;2023-07-29T04:54:30;4.03;;;1.90;;
53549;SDS011;67273;52.914;-0.982;2023-07-29T04:56:57;1.92;;;1.60;;
53549;SDS011;67273;52.914;-0.982;2023-07-29T04:59:23;2.97;;;1.70;;
53549;SDS011;67273;52.914;-0.982;2023-07-29T05:01:51;2.55;;;1.48;;
53549;SDS011;67273;52.914;-0.982;2023-07-29T05:04:16;3.03;;;1.73;;
53549;SDS011;67273;52.914;-0.982;2023-07-29T05:06:43;3.05;;;1.67;;
53549;SDS011;67273;52.914;-0.982;2023-07-29T05:09:13;2.45;;;1.65;;
53549;SDS011;67273;52.914;-0.982;2023-07-29T05:11:42;3.55;;;1.80;;
53549;SDS011;67273;52.914;-0.982;2023-07-29T05:14:14;2.85;;;1.75;;
53549;SDS011;67273;52.914;-0.982;2023-07-29T05:16:42;2.63;;;1.67;;
53549;SDS011;67273;52.914;-0.982;2023-07-29T05:19:09;3.58;;;1.83;;
53549;SDS011;67273;52.914;-0.982;2023-07-29T05:21:37;2.80;;;1.88;;
53549;SDS011;67273;52.914;-0.982;2023-07-29T05:24:06;5.20;;;2.10;;
53549;SDS011;67273;52.914;-0.982;2023-07-29T05:26:36;4.13;;;1.80;;
53549;SDS011;67273;52.914;-0.982;2023-07-29T05:29:03;4.53;;;1.77;;
53549;SDS011;67273;52.914;-0.982;2023-07-29T05:31:31;3.92;;;1.75;;
53549;SDS011;67273;52.914;-0.982;2023-07-29T05:33:57;2.65;;;1.70;;
53549;SDS011;67273;52.914;-0.982;2023-07-29T05:36:23;2.78;;;1.80;;
53549;SDS011;67273;52.914;-0.982;2023-07-29T05:38:49;4.07;;;2.03;;
53549;SDS011;67273;52.914;-0.982;2023-07-29T05:41:18;4.47;;;2.10;;
53549;SDS011;67273;52.914;-0.982;2023-07-29T05:43:43;3.25;;;1.67;;
53549;SDS011;67273;52.914;-0.982;2023-07-29T05:46:10;3.75;;;1.70;;
53549;SDS011;67273;52.914;-0.982;2023-07-29T05:48:36;4.03;;;1.80;;
53549;SDS011;67273;52.914;-0.982;2023-07-29T05:51:02;3.15;;;1.80;;
53549;SDS011;67273;52.914;-0.982;2023-07-29T05:53:28;4.72;;;2.05;;
53549;SDS011;67273;52.914;-0.982;2023-07-29T05:55:54;3.78;;;2.28;;
53549;SDS011;67273;52.914;-0.982;2023-07-29T05:58:21;3.88;;;1.85;;
53549;SDS011;67273;52.914;-0.982;2023-07-29T06:00:47;3.85;;;2.10;;
53549;SDS011;67273;52.914;-0.982;2023-07-29T06:03:13;4.20;;;1.88;;
53549;SDS011;67273;52.914;-0.982;2023-07-29T06:05:39;3.75;;;1.90;;
53549;SDS011;67273;52.914;-0.982;2023-07-29T06:08:05;3.85;;;1.95;;
53549;SDS011;67273;52.914;-0.982;2023-07-29T06:10:30;3.78;;;1.95;;
53549;SDS011;67273;52.914;-0.982;2023-07-29T06:12:56;3.47;;;2.05;;
53549;SDS011;67273;52.914;-0.982;2023-07-29T06:15:23;3.10;;;1.80;;
53549;SDS011;67273;52.914;-0.982;2023-07-29T06:17:49;2.90;;;1.90;;
53549;SDS011;67273;52.914;-0.982;2023-07-29T06:20:15;3.78;;;2.03;;
53549;SDS011;67273;52.914;-0.982;2023-07-29T06:22:41;3.75;;;2.08;;
53549;SDS011;67273;52.914;-0.982;2023-07-29T06:25:08;3.83;;;1.92;;
53549;SDS011;67273;52.914;-0.982;2023-07-29T06:27:33;3.70;;;1.85;;
53549;SDS011;67273;52.914;-0.982;2023-07-29T06:29:59;5.25;;;1.77;;
53549;SDS011;67273;52.914;-0.982;2023-07-29T06:32:27;4.45;;;1.92;;
53549;SDS011;67273;52.914;-0.982;2023-07-29T06:34:53;2.13;;;1.60;;
53549;SDS011;67273;52.914;-0.982;2023-07-29T06:37:19;4.28;;;1.98;;
53549;SDS011;67273;52.914;-0.982;2023-07-29T06:39:45;2.90;;;2.00;;
53549;SDS011;67273;52.914;-0.982;2023-07-29T06:42:11;3.70;;;1.80;;
53549;SDS011;67273;52.914;-0.982;2023-07-29T06:44:37;3.65;;;1.75;;
53549;SDS011;67273;52.914;-0.982;2023-07-29T06:47:03;3.58;;;2.03;;
53549;SDS011;67273;52.914;-0.982;2023-07-29T06:49:30;4.00;;;1.92;;
53549;SDS011;67273;52.914;-0.982;2023-07-29T06:51:56;2.83;;;1.85;;
53549;SDS011;67273;52.914;-0.982;2023-07-29T06:54:23;3.65;;;1.90;;
53549;SDS011;67273;52.914;-0.982;2023-07-29T06:56:49;3.20;;;2.00;;
53549;SDS011;67273;52.914;-0.982;2023-07-29T06:59:15;2.90;;;1.50;;
53549;SDS011;67273;52.914;-0.982;2023-07-29T07:01:40;3.45;;;2.10;;
53549;SDS011;67273;52.914;-0.982;2023-07-29T07:04:06;4.22;;;2.08;;
53549;SDS011;67273;52.914;-0.982;2023-07-29T07:06:33;3.22;;;1.83;;
53549;SDS011;67273;52.914;-0.982;2023-07-29T07:08:59;5.03;;;2.15;;
53549;SDS011;67273;52.914;-0.982;2023-07-29T07:11:25;3.60;;;1.85;;
53549;SDS011;67273;52.914;-0.982;2023-07-29T07:13:51;3.88;;;1.88;;
53549;SDS011;67273;52.914;-0.982;2023-07-29T07:16:16;3.35;;;1.70;;
53549;SDS011;67273;52.914;-0.982;2023-07-29T07:18:42;5.70;;;2.08;;
53549;SDS011;67273;52.914;-0.982;2023-07-29T07:21:08;3.83;;;1.88;;
53549;SDS011;67273;52.914;-0.982;2023-07-29T07:23:35;4.15;;;1.88;;
53549;SDS011;67273;52.914;-0.982;2023-07-29T07:26:01;2.92;;;1.70;;
53549;SDS011;67273;52.914;-0.982;2023-07-29T07:28:28;3.38;;;1.90;;
53549;SDS011;67273;52.914;-0.982;2023-07-29T07:30:59;4.30;;;2.03;;
53549;SDS011;67273;52.914;-0.982;2023-07-29T07:33:28;5.50;;;1.70;;
53549;SDS011;67273;52.914;-0.982;2023-07-29T07:35:55;3.88;;;1.80;;
53549;SDS011;67273;52.914;-0.982;2023-07-29T07:38:22;3.78;;;1.83;;
53549;SDS011;67273;52.914;-0.982;2023-07-29T07:40:55;3.97;;;2.03;;
53549;SDS011;67273;52.914;-0.982;2023-07-29T07:43:23;3.67;;;2.03;;
53549;SDS011;67273;52.914;-0.982;2023-07-29T07:45:53;3.92;;;1.90;;
53549;SDS011;67273;52.914;-0.982;2023-07-29T07:48:26;4.60;;;1.80;;
53549;SDS011;67273;52.914;-0.982;2023-07-29T07:50:54;4.20;;;2.00;;
53549;SDS011;67273;52.914;-0.982;2023-07-29T07:53:23;4.53;;;2.17;;
53549;SDS011;67273;52.914;-0.982;2023-07-29T07:55:54;2.67;;;1.70;;
53549;SDS011;67273;52.914;-0.982;2023-07-29T07:58:22;3.22;;;1.67;;
53549;SDS011;67273;52.914;-0.982;2023-07-29T08:00:51;3.47;;;1.70;;
53549;SDS011;67273;52.914;-0.982;2023-07-29T08:03:26;2.85;;;1.67;;
53549;SDS011;67273;52.914;-0.982;2023-07-29T08:05:55;4.32;;;1.95;;
53549;SDS011;67273;52.914;-0.982;2023-07-29T08:08:24;2.78;;;1.60;;
53549;SDS011;67273;52.914;-0.982;2023-07-29T08:10:51;3.40;;;1.80;;
53549;SDS011;67273;52.914;-0.982;2023-07-29T08:13:20;3.03;;;1.80;;
53549;SDS011;67273;52.914;-0.982;2023-07-29T08:15:47;3.92;;;1.90;;
53549;SDS011;67273;52.914;-0.982;2023-07-29T08:18:16;3.70;;;1.52;;
53549;SDS011;67273;52.914;-0.982;2023-07-29T08:20:46;3.25;;;1.80;;
53549;SDS011;67273;52.914;-0.982;2023-07-29T08:23:17;3.33;;;1.88;;
53549;SDS011;67273;52.914;-0.982;2023-07-29T08:25:43;3.10;;;1.50;;
53549;SDS011;67273;52.914;-0.982;2023-07-29T08:28:08;3.45;;;1.73;;
53549;SDS011;67273;52.914;-0.982;2023-07-29T08:30:37;3.40;;;1.90;;
53549;SDS011;67273;52.914;-0.982;2023-07-29T08:33:03;3.85;;;2.00;;
53549;SDS011;67273;52.914;-0.982;2023-07-29T08:35:29;3.03;;;1.85;;
53549;SDS011;67273;52.914;-0.982;2023-07-29T08:37:55;2.90;;;1.52;;
53549;SDS011;67273;52.914;-0.982;2023-07-29T08:40:22;2.88;;;1.73;;
53549;SDS011;67273;52.914;-0.982;2023-07-29T08:42:54;1.98;;;1.42;;
53549;SDS011;67273;52.914;-0.982;2023-07-29T08:45:23;2.40;;;1.50;;
53549;SDS011;67273;52.914;-0.982;2023-07-29T08:47:51;5.10;;;1.80;;
53549;SDS011;67273;52.914;-0.982;2023-07-29T08:50:22;4.23;;;2.03;;
53549;SDS011;67273;52.914;-0.982;2023-07-29T08:52:49;2.90;;;1.73;;
53549;SDS011;67273;52.914;-0.982;2023-07-29T08:55:17;4.45;;;1.70;;
53549;SDS011;67273;52.914;-0.982;2023-07-29T08:57:44;5.65;;;1.70;;
53549;SDS011;67273;52.914;-0.982;2023-07-29T09:00:10;4.18;;;1.77;;
53549;SDS011;67273;52.914;-0.982;2023-07-29T09:02:38;3.38;;;1.73;;
53549;SDS011;67273;52.914;-0.982;2023-07-29T09:05:05;3.10;;;1.60;;
53549;SDS011;67273;52.914;-0.982;2023-07-29T09:07:31;2.75;;;1.55;;
53549;SDS011;67273;52.914;-0.982;2023-07-29T09:09:59;4.18;;;1.75;;
53549;SDS011;67273;52.914;-0.982;2023-07-29T09:12:25;4.85;;;1.83;;
53549;SDS011;67273;52.914;-0.982;2023-07-29T09:14:51;3.47;;;1.80;;
53549;SDS011;67273;52.914;-0.982;2023-07-29T09:17:18;4.25;;;1.63;;
53549;SDS011;67273;52.914;-0.982;2023-07-29T09:19:47;5.25;;;1.80;;
53549;SDS011;67273;52.914;-0.982;2023-07-29T09:22:18;4.10;;;1.70;;
53549;SDS011;67273;52.914;-0.982;2023-07-29T09:24:44;4.72;;;1.77;;
53549;SDS011;67273;52.914;-0.982;2023-07-29T09:27:11;3.95;;;1.63;;
53549;SDS011;67273;52.914;-0.982;2023-07-29T09:29:49;3.25;;;1.60;;
53549;SDS011;67273;52.914;-0.982;2023-07-29T09:32:18;4.00;;;1.83;;
53549;SDS011;67273;52.914;-0.982;2023-07-29T09:34:45;4.20;;;1.73;;
53549;SDS011;67273;52.914;-0.982;2023-07-29T09:37:15;3.60;;;1.90;;
53549;SDS011;67273;52.914;-0.982;2023-07-29T09:39:45;4.63;;;2.00;;
53549;SDS011;67273;52.914;-0.982;2023-07-29T09:42:11;4.35;;;2.17;;
53549;SDS011;67273;52.914;-0.982;2023-07-29T09:44:37;3.75;;;1.98;;
53549;SDS011;67273;52.914;-0.982;2023-07-29T09:47:03;5.20;;;2.20;;
53549;SDS011;67273;52.914;-0.982;2023-07-29T09:49:30;7.88;;;3.03;;
53549;SDS011;67273;52.914;-0.982;2023-07-29T09:52:01;5.13;;;2.75;;
53549;SDS011;67273;52.914;-0.982;2023-07-29T09:54:31;5.68;;;3.13;;
53549;SDS011;67273;52.914;-0.982;2023-07-29T09:56:58;8.90;;;4.78;;
53549;SDS011;67273;52.914;-0.982;2023-07-29T09:59:24;7.90;;;4.50;;
53549;SDS011;67273;52.914;-0.982;2023-07-29T10:01:50;7.15;;;3.80;;
53549;SDS011;67273;52.914;-0.982;2023-07-29T10:04:16;7.75;;;4.50;;
53549;SDS011;67273;52.914;-0.982;2023-07-29T10:06:42;5.35;;;3.40;;
53549;SDS011;67273;52.914;-0.982;2023-07-29T10:09:09;7.93;;;4.00;;
53549;SDS011;67273;52.914;-0.982;2023-07-29T10:11:36;7.22;;;4.53;;
53549;SDS011;67273;52.914;-0.982;2023-07-29T10:14:04;7.93;;;3.80;;
53549;SDS011;67273;52.914;-0.982;2023-07-29T10:16:30;13.13;;;5.30;;
53549;SDS011;67273;52.914;-0.982;2023-07-29T10:18:56;7.90;;;4.82;;
53549;SDS011;67273;52.914;-0.982;2023-07-29T10:21:22;5.68;;;3.83;;
53549;SDS011;67273;52.914;-0.982;2023-07-29T10:23:49;7.88;;;4.32;;
53549;SDS011;67273;52.914;-0.982;2023-07-29T10:26:19;6.43;;;3.67;;
53549;SDS011;67273;52.914;-0.982;2023-07-29T10:28:47;7.20;;;3.92;;
53549;SDS011;67273;52.914;-0.982;2023-07-29T10:31:16;5.53;;;3.42;;
53549;SDS011;67273;52.914;-0.982;2023-07-29T10:33:45;6.93;;;4.00;;
53549;SDS011;67273;52.914;-0.982;2023-07-29T10:36:15;7.13;;;3.63;;
53549;SDS011;67273;52.914;-0.982;2023-07-29T10:38:44;8.65;;;3.90;;
53549;SDS011;67273;52.914;-0.982;2023-07-29T10:41:12;5.28;;;3.35;;
53549;SDS011;67273;52.914;-0.982;2023-07-29T10:43:38;5.38;;;2.95;;
53549;SDS011;67273;52.914;-0.982;2023-07-29T10:46:17;5.63;;;3.25;;
53549;SDS011;67273;52.914;-0.982;2023-07-29T10:48:51;6.38;;;3.25;;
53549;SDS011;67273;52.914;-0.982;2023-07-29T10:51:21;6.45;;;3.20;;
53549;SDS011;67273;52.914;-0.982;2023-07-29T10:53:54;12.55;;;3.65;;
53549;SDS011;67273;52.914;-0.982;2023-07-29T10:56:24;6.10;;;3.25;;
53549;SDS011;67273;52.914;-0.982;2023-07-29T10:58:52;6.30;;;3.30;;
53549;SDS011;67273;52.914;-0.982;2023-07-29T11:01:27;8.73;;;3.72;;
53549;SDS011;67273;52.914;-0.982;2023-07-29T11:09:55;8.13;;;3.00;;
53549;SDS011;67273;52.914;-0.982;2023-07-29T11:12:35;7.68;;;2.90;;
53549;SDS011;67273;52.914;-0.982;2023-07-29T11:15:14;14.27;;;3.47;;
53549;SDS011;67273;52.914;-0.982;2023-07-29T11:17:44;5.47;;;2.70;;
53549;SDS011;67273;52.914;-0.982;2023-07-29T11:20:13;6.85;;;2.53;;
53549;SDS011;67273;52.914;-0.982;2023-07-29T11:22:39;9.13;;;2.40;;
53549;SDS011;67273;52.914;-0.982;2023-07-29T11:25:07;5.18;;;2.67;;
53549;SDS011;67273;52.914;-0.982;2023-07-29T11:27:33;5.88;;;2.58;;
53549;SDS011;67273;52.914;-0.982;2023-07-29T11:30:00;4.53;;;2.60;;
53549;SDS011;67273;52.914;-0.982;2023-07-29T11:32:27;5.32;;;2.28;;
53549;SDS011;67273;52.914;-0.982;2023-07-29T11:34:54;4.97;;;2.47;;
53549;SDS011;67273;52.914;-0.982;2023-07-29T11:37:20;4.15;;;2.33;;
53549;SDS011;67273;52.914;-0.982;2023-07-29T11:39:47;7.25;;;2.70;;
53549;SDS011;67273;52.914;-0.982;2023-07-29T11:42:13;5.18;;;2.40;;
53549;SDS011;67273;52.914;-0.982;2023-07-29T11:44:39;6.05;;;2.75;;
53549;SDS011;67273;52.914;-0.982;2023-07-29T11:47:06;6.15;;;2.90;;
53549;SDS011;67273;52.914;-0.982;2023-07-29T11:49:32;4.82;;;2.30;;
53549;SDS011;67273;52.914;-0.982;2023-07-29T11:51:59;5.25;;;2.50;;
53549;SDS011;67273;52.914;-0.982;2023-07-29T11:54:25;9.68;;;2.70;;
53549;SDS011;67273;52.914;-0.982;2023-07-29T11:56:51;5.72;;;2.33;;
53549;SDS011;67273;52.914;-0.982;2023-07-29T11:59:17;3.88;;;2.20;;
53549;SDS011;67273;52.914;-0.982;2023-07-29T12:01:43;4.57;;;2.30;;
53549;SDS011;67273;52.914;-0.982;2023-07-29T12:04:08;3.58;;;2.03;;
53549;SDS011;67273;52.914;-0.982;2023-07-29T12:06:35;6.40;;;2.50;;
53549;SDS011;67273;52.914;-0.982;2023-07-29T12:09:02;4.55;;;2.38;;
53549;SDS011;67273;52.914;-0.982;2023-07-29T12:11:28;7.70;;;3.00;;
53549;SDS011;67273;52.914;-0.982;2023-07-29T12:13:54;6.13;;;2.60;;
53549;SDS011;67273;52.914;-0.982;2023-07-29T12:16:20;4.18;;;2.10;;
53549;SDS011;67273;52.914;-0.982;2023-07-29T12:18:45;5.95;;;2.33;;
53549;SDS011;67273;52.914;-0.982;2023-07-29T12:21:15;5.85;;;2.15;;
53549;SDS011;67273;52.914;-0.982;2023-07-29T12:23:41;5.57;;;2.15;;
53549;SDS011;67273;52.914;-0.982;2023-07-29T12:26:08;3.72;;;2.05;;
53549;SDS011;67273;52.914;-0.982;2023-07-29T12:28:33;5.95;;;2.00;;
53549;SDS011;67273;52.914;-0.982;2023-07-29T12:30:59;5.38;;;2.50;;
53549;SDS011;67273;52.914;-0.982;2023-07-29T12:33:31;3.60;;;1.90;;
53549;SDS011;67273;52.914;-0.982;2023-07-29T12:35:57;4.28;;;2.30;;
53549;SDS011;67273;52.914;-0.982;2023-07-29T12:38:25;5.80;;;2.08;;
53549;SDS011;67273;52.914;-0.982;2023-07-29T12:40:51;4.13;;;1.73;;
53549;SDS011;67273;52.914;-0.982;2023-07-29T12:43:18;4.68;;;2.03;;
53549;SDS011;67273;52.914;-0.982;2023-07-29T12:45:44;3.78;;;1.80;;
53549;SDS011;67273;52.914;-0.982;2023-07-29T12:48:10;3.13;;;1.40;;
53549;SDS011;67273;52.914;-0.982;2023-07-29T12:50:36;3.40;;;1.67;;
53549;SDS011;67273;52.914;-0.982;2023-07-29T12:53:02;5.50;;;2.10;;
53549;SDS011;67273;52.914;-0.982;2023-07-29T12:55:28;3.78;;;1.75;;
53549;SDS011;67273;52.914;-0.982;2023-07-29T12:57:53;4.25;;;1.60;;
53549;SDS011;67273;52.914;-0.982;2023-07-29T13:00:21;4.30;;;1.55;;
53549;SDS011;67273;52.914;-0.982;2023-07-29T13:02:46;4.78;;;1.65;;
53549;SDS011;67273;52.914;-0.982;2023-07-29T13:05:12;4.72;;;1.75;;
53549;SDS011;67273;52.914;-0.982;2023-07-29T13:07:38;5.72;;;1.80;;
53549;SDS011;67273;52.914;-0.982;2023-07-29T13:10:04;5.65;;;1.80;;
53549;SDS011;67273;52.914;-0.982;2023-07-29T13:12:31;6.05;;;1.80;;
53549;SDS011;67273;52.914;-0.982;2023-07-29T13:14:57;5.78;;;1.80;;
53549;SDS011;67273;52.914;-0.982;2023-07-29T13:17:24;4.00;;;1.60;;
53549;SDS011;67273;52.914;-0.982;2023-07-29T13:19:50;4.72;;;1.50;;
53549;SDS011;67273;52.914;-0.982;2023-07-29T13:22:16;2.55;;;1.30;;
53549;SDS011;67273;52.914;-0.982;2023-07-29T13:24:42;5.38;;;1.70;;
53549;SDS011;67273;52.914;-0.982;2023-07-29T13:27:07;7.13;;;1.80;;
53549;SDS011;67273;52.914;-0.982;2023-07-29T13:29:33;3.00;;;1.67;;
53549;SDS011;67273;52.914;-0.982;2023-07-29T13:31:59;5.10;;;1.77;;
53549;SDS011;67273;52.914;-0.982;2023-07-29T13:34:26;4.80;;;1.83;;
53549;SDS011;67273;52.914;-0.982;2023-07-29T13:36:53;4.53;;;1.70;;
53549;SDS011;67273;52.914;-0.982;2023-07-29T13:39:19;5.53;;;1.75;;
53549;SDS011;67273;52.914;-0.982;2023-07-29T13:41:44;6.32;;;2.22;;
53549;SDS011;67273;52.914;-0.982;2023-07-29T13:44:10;3.42;;;1.50;;
53549;SDS011;67273;52.914;-0.982;2023-07-29T13:46:36;2.25;;;1.40;;
53549;SDS011;67273;52.914;-0.982;2023-07-29T13:49:01;4.30;;;1.52;;
53549;SDS011;67273;52.914;-0.982;2023-07-29T13:51:30;4.55;;;1.75;;
53549;SDS011;67273;52.914;-0.982;2023-07-29T13:53:55;4.20;;;1.55;;
53549;SDS011;67273;52.914;-0.982;2023-07-29T13:56:21;4.30;;;1.63;;
53549;SDS011;67273;52.914;-0.982;2023-07-29T13:58:47;4.30;;;1.50;;
53549;SDS011;67273;52.914;-0.982;2023-07-29T14:01:13;4.75;;;1.70;;
53549;SDS011;67273;52.914;-0.982;2023-07-29T14:03:39;5.55;;;1.50;;
53549;SDS011;67273;52.914;-0.982;2023-07-29T14:06:04;3.75;;;1.50;;
53549;SDS011;67273;52.914;-0.982;2023-07-29T14:08:31;3.72;;;1.60;;
53549;SDS011;67273;52.914;-0.982;2023-07-29T14:10:57;4.28;;;1.50;;
53549;SDS011;67273;52.914;-0.982;2023-07-29T14:13:23;2.95;;;1.40;;
53549;SDS011;67273;52.914;-0.982;2023-07-29T14:15:49;4.40;;;1.60;;
53549;SDS011;67273;52.914;-0.982;2023-07-29T14:18:15;3.28;;;1.42;;
53549;SDS011;67273;52.914;-0.982;2023-07-29T14:20:40;3.75;;;1.70;;
53549;SDS011;67273;52.914;-0.982;2023-07-29T14:23:06;2.85;;;1.30;;
53549;SDS011;67273;52.914;-0.982;2023-07-29T14:25:33;3.83;;;1.60;;
53549;SDS011;67273;52.914;-0.982;2023-07-29T14:27:59;4.10;;;1.50;;
53549;SDS011;67273;52.914;-0.982;2023-07-29T14:30:25;4.10;;;1.63;;
53549;SDS011;67273;52.914;-0.982;2023-07-29T14:32:50;3.85;;;1.67;;
53549;SDS011;67273;52.914;-0.982;2023-07-29T14:35:16;2.55;;;1.40;;
53549;SDS011;67273;52.914;-0.982;2023-07-29T14:37:42;3.22;;;1.52;;
53549;SDS011;67273;52.914;-0.982;2023-07-29T14:40:08;3.92;;;1.55;;